Flight Track Log - Related Links

Times and Time Zones

All times are in EDT time to prevent confusion due to time zone crossing. See the BOE22 flight status page for this flight to view local times or setup timezone preferences in your user account.

Time Position Orientation Groundspeed Altitude Reporting Facility
EDT Latitude Longitude Course Direction KTS MPH feet Rate Location/Type
Mon 13:55:42 46.6611 -120.6697 317° Northwest 270 311 9,300  Level Seattle Center
Mon 13:56:43 46.7097 -120.7614 308° West 285 328 12,600 1,820 Climbing Seattle Center
Mon 13:57:44 46.7597 -120.8556 308° West 293 337 13,000 148 Climbing Seattle Center
Mon 13:58:45 46.8278 -120.9428 319° Northwest 333 383 12,900 -492 Descending Seattle Center
Mon 13:59:46 46.9317 -120.9517 357° North 353 406 12,000 -443 Descending Seattle Center
Mon 14:00:00 46.7640 -120.8707 304° West  Level FlightAware Approximate
Mon 14:00:47 47.0272 -120.9589 357° North 336 387 12,000  Level Seattle Center
Mon 14:01:48 47.0972 -120.9900 343° North 309 356 11,000 -443 Descending Seattle Center
Mon 14:02:49 47.1056 -121.1069 276° West 310 357 11,100 49 Climbing Seattle Center
Mon 14:03:50 47.0956 -121.2322 263° West 313 360 11,100  Level Seattle Center
Mon 14:05:01 47.0825 -121.4047 264° West 312 359 11,100  Level Seattle Center
Mon 14:05:56 47.0750 -121.5036 264° West 295 339 11,100  Level Seattle Center
Mon 14:06:53 47.1114 -121.5992 299° West 278 320 11,100 -458 Level Seattle Center
Mon 14:07:54 47.1550 -121.6928 304° West 280 322 10,200 -1,328 Descending Seattle Center
Mon 14:08:55 47.1975 -121.7867 304° West 278 320 8,400 -1,866 Descending Seattle Center
Mon 14:09:53 47.2356 -121.8875 299° West 275 316 6,500 -1,261 Descending Seattle Center
Mon 14:10:54 47.2700 -121.9861 297° West 270 311 5,900 -885 Descending Seattle Center
Mon 14:11:55 47.3000 -122.0772 296° West 243 280 4,700 -1,082 Descending Seattle Center
Mon 14:12:56 47.3428 -122.1486 312° West 209 241 3,700 -787 Descending Seattle Center
Mon 14:13:57 47.3881 -122.1858 331° Northwest 175 201 3,100 -750 Descending Seattle Center
Mon 14:15:04 47.4278 -122.2194 330° Northwest 141 162 2,100 -714 Descending Seattle Center
Mon 14:16:03 47.4558 -122.2417 332° Northwest 122 140 1,600 -672 Descending Seattle Center
Mon 14:17:00 47.4861 -122.2658 332° Northwest 112 129 800 -661 Descending Seattle Center
Mon 14:18:01 47.5117 -122.2878 330° Northwest 117 135 300 -333 Descending Seattle Center
Mon 14:19:06 47.5400 -122.3106 332° Northwest 116 133 100 -185 Descending Seattle Center

Login

Don't have an account? Register now (free) for customized features, flight alerts, and more!